Time;durP1;ratioP1;P1;durP2;ratioP2;P2;SDS_P1;SDS_P2;PMS_P1;PMS_P2;Temp;Humidity;BMP_temperature;BMP_pressure;BME280_temperature;BME280_humidity;BME280_pressure;Samples;Min_cycle;Max_cycle;Signal;HPM_P1;HPM_P2
2023/04/16 00:01:53;;;;;;;4.25;2.85;;;;;;;;;;10102171;23;20045;-82
2023/04/16 00:06:58;;;;;;;4.05;3.60;;;;;;;;;;10065274;29;20048;-82
2023/04/16 00:12:01;;;;;;;3.80;3.17;;;;;;;;;;10029789;29;20056;-83
2023/04/16 00:17:04;;;;;;;5.05;3.97;;;;;;;;;;10021196;29;20041;-82
2023/04/16 00:22:09;;;;;;;3.72;3.20;;;;;;;;;;10037349;29;20507;-82
2023/04/16 00:27:12;;;;;;;4.85;3.15;;;;;;;;;;10036053;29;20049;-82
2023/04/16 00:32:16;;;;;;;4.72;3.40;;;;;;;;;;10022230;29;20121;-82
2023/04/16 00:37:20;;;;;;;4.47;3.28;;;;;;;;;;10021437;29;20050;-82
2023/04/16 00:42:24;;;;;;;5.15;3.80;;;;;;;;;;10038825;29;20818;-82
2023/04/16 00:47:27;;;;;;;7.22;4.30;;;;;;;;;;10029870;29;20061;-82
2023/04/16 00:52:33;;;;;;;4.25;3.55;;;;;;;;;;10022648;29;20077;-83
2023/04/16 00:57:36;;;;;;;6.20;4.87;;;;;;;;;;10031977;29;20053;-82
2023/04/16 01:02:39;;;;;;;7.88;5.55;;;;;;;;;;9987009;29;1054819;-82
2023/04/16 01:07:44;;;;;;;6.45;4.43;;;;;;;;;;10029423;29;20048;-87
2023/04/16 01:12:48;;;;;;;6.47;4.97;;;;;;;;;;10045559;29;20073;-83
2023/04/16 01:17:51;;;;;;;8.02;5.45;;;;;;;;;;10027241;29;20049;-81
2023/04/16 01:22:56;;;;;;;6.93;5.05;;;;;;;;;;10021346;29;20049;-81
2023/04/16 01:27:59;;;;;;;8.85;6.28;;;;;;;;;;10020785;29;20075;-82
2023/04/16 01:33:03;;;;;;;4.45;3.88;;;;;;;;;;10035802;29;20049;-83
2023/04/16 01:38:09;;;;;;;5.18;4.10;;;;;;;;;;10020071;29;20045;-82
2023/04/16 01:43:12;;;;;;;4.10;3.55;;;;;;;;;;10021373;29;20046;-82
2023/04/16 01:48:16;;;;;;;6.45;4.28;;;;;;;;;;10033964;29;20141;-82
2023/04/16 01:53:21;;;;;;;5.18;3.60;;;;;;;;;;10034782;29;20079;-82
2023/04/16 01:58:24;;;;;;;9.27;7.03;;;;;;;;;;10018447;29;20231;-82
2023/04/16 02:03:28;;;;;;;7.13;5.10;;;;;;;;;;10035149;29;20086;-81
2023/04/16 02:08:33;;;;;;;5.65;4.68;;;;;;;;;;10035638;29;20054;-82
2023/04/16 02:13:36;;;;;;;11.35;6.82;;;;;;;;;;10019973;29;20053;-83
2023/04/16 02:18:40;;;;;;;8.32;6.05;;;;;;;;;;10035815;29;20037;-82
2023/04/16 02:23:46;;;;;;;12.20;7.63;;;;;;;;;;10036165;29;20404;-82
2023/04/16 02:28:51;;;;;;;11.00;7.93;;;;;;;;;;10020074;29;20037;-83
2023/04/16 02:34:01;;;;;;;9.70;6.88;;;;;;;;;;10021566;29;20065;-82
2023/04/16 02:39:06;;;;;;;6.57;5.07;;;;;;;;;;10041932;29;20053;-83
2023/04/16 02:44:10;;;;;;;8.90;6.05;;;;;;;;;;10043729;29;20076;-82
2023/04/16 02:49:13;;;;;;;6.38;4.78;;;;;;;;;;10047602;29;20057;-84
2023/04/16 02:54:18;;;;;;;7.57;4.63;;;;;;;;;;10050446;29;20054;-86
2023/04/16 02:59:21;;;;;;;9.75;6.65;;;;;;;;;;10049232;29;20132;-85
2023/04/16 03:04:25;;;;;;;11.90;7.68;;;;;;;;;;10034864;29;20046;-89
2023/04/16 03:09:30;;;;;;;8.75;6.13;;;;;;;;;;10038322;29;20049;-85
2023/04/16 03:14:33;;;;;;;9.77;5.93;;;;;;;;;;10048386;29;20058;-85
2023/04/16 03:19:37;;;;;;;11.27;7.45;;;;;;;;;;10048148;29;20132;-84
2023/04/16 03:24:42;;;;;;;11.65;7.40;;;;;;;;;;10028057;29;20041;-85
2023/04/16 03:29:45;;;;;;;12.00;7.03;;;;;;;;;;10034555;29;21120;-84
2023/04/16 03:34:49;;;;;;;16.77;11.70;;;;;;;;;;10033068;29;20060;-85
2023/04/16 03:39:54;;;;;;;17.80;11.80;;;;;;;;;;10036066;29;20089;-84
2023/04/16 03:44:58;;;;;;;11.40;7.88;;;;;;;;;;10032334;29;20072;-87
2023/04/16 03:50:02;;;;;;;19.10;11.82;;;;;;;;;;10035145;29;20037;-86
2023/04/16 03:55:08;;;;;;;17.52;10.55;;;;;;;;;;10031035;29;20073;-86
2023/04/16 04:00:13;;;;;;;12.40;8.20;;;;;;;;;;10033344;29;20102;-85
2023/04/16 04:05:54;;;;;;;18.50;11.23;;;;;;;;;;10040716;29;20053;-85
2023/04/16 04:11:05;;;;;;;8.05;5.68;;;;;;;;;;10037235;29;20049;-84
2023/04/16 04:16:13;;;;;;;19.92;12.23;;;;;;;;;;10033793;29;20101;-85
2023/04/16 04:21:19;;;;;;;16.60;10.95;;;;;;;;;;10030977;29;20041;-85
2023/04/16 04:26:24;;;;;;;17.42;10.77;;;;;;;;;;10031783;29;20057;-86
2023/04/16 04:31:27;;;;;;;19.38;11.98;;;;;;;;;;10024483;29;20046;-84
2023/04/16 04:36:31;;;;;;;19.65;11.77;;;;;;;;;;10034291;29;20065;-84
2023/04/16 04:41:37;;;;;;;15.02;10.25;;;;;;;;;;10032053;29;20472;-85
2023/04/16 04:46:41;;;;;;;16.50;11.40;;;;;;;;;;10024926;29;20684;-82
2023/04/16 04:51:45;;;;;;;9.35;5.57;;;;;;;;;;10024052;29;20045;-82
2023/04/16 04:56:51;;;;;;;13.57;7.90;;;;;;;;;;10018303;29;20624;-82
2023/04/16 05:01:55;;;;;;;13.13;8.30;;;;;;;;;;10022801;29;20041;-82
2023/04/16 05:06:58;;;;;;;15.95;9.35;;;;;;;;;;10022834;29;20128;-82
2023/04/16 05:12:03;;;;;;;16.92;10.45;;;;;;;;;;10022864;29;20045;-82
2023/04/16 05:17:09;;;;;;;13.65;8.85;;;;;;;;;;10022823;29;20049;-83
2023/04/16 05:22:12;;;;;;;11.98;7.57;;;;;;;;;;10022810;29;20135;-83
2023/04/16 05:27:17;;;;;;;10.85;6.82;;;;;;;;;;10021630;29;20057;-82
2023/04/16 05:32:21;;;;;;;9.50;6.07;;;;;;;;;;10040142;29;20053;-82
2023/04/16 05:37:24;;;;;;;14.88;7.75;;;;;;;;;;10036950;29;20109;-83
2023/04/16 05:42:29;;;;;;;8.70;6.00;;;;;;;;;;10031576;29;20045;-81
2023/04/16 05:47:32;;;;;;;7.82;5.03;;;;;;;;;;10037913;29;20046;-82
2023/04/16 05:52:35;;;;;;;8.40;5.78;;;;;;;;;;10038932;29;20045;-83
2023/04/16 05:57:40;;;;;;;8.70;6.15;;;;;;;;;;10020705;29;20067;-82
2023/04/16 06:02:43;;;;;;;7.90;5.20;;;;;;;;;;10107603;23;20075;-81
2023/04/16 06:07:47;;;;;;;8.25;5.90;;;;;;;;;;10056190;29;20054;-81
2023/04/16 06:12:54;;;;;;;7.13;5.03;;;;;;;;;;10024329;29;20042;-81
2023/04/16 06:17:57;;;;;;;9.05;6.13;;;;;;;;;;10039315;29;20036;-81
2023/04/16 06:23:02;;;;;;;10.82;7.07;;;;;;;;;;10038456;29;20052;-81
2023/04/16 06:28:07;;;;;;;14.32;8.98;;;;;;;;;;10030273;29;20095;-80
2023/04/16 06:33:10;;;;;;;11.52;7.70;;;;;;;;;;10022988;29;20498;-81
2023/04/16 06:38:17;;;;;;;12.43;7.97;;;;;;;;;;10039939;29;20133;-84
2023/04/16 06:43:23;;;;;;;;;;;;;;;;;;10024736;29;20049;-81
2023/04/16 06:48:26;;;;;;;;;;;;;;;;;;10039342;29;19924;-82
2023/04/16 06:53:30;;;;;;;7.93;4.88;;;;;;;;;;10042720;29;19934;-81
2023/04/16 06:58:35;;;;;;;8.95;5.78;;;;;;;;;;10026323;29;20046;-81
2023/04/16 07:03:38;;;;;;;9.43;6.28;;;;;;;;;;10042142;29;20140;-87
2023/04/16 07:08:42;;;;;;;9.30;6.13;;;;;;;;;;10045359;29;20115;-84
2023/04/16 07:13:46;;;;;;;15.60;9.40;;;;;;;;;;10044732;29;20567;-86
2023/04/16 07:18:50;;;;;;;12.00;7.68;;;;;;;;;;10043243;29;20125;-86
2023/04/16 07:23:53;;;;;;;10.65;6.68;;;;;;;;;;10048174;29;20118;-82
2023/04/16 07:28:58;;;;;;;10.40;7.10;;;;;;;;;;10052242;29;20053;-81
2023/04/16 07:34:01;;;;;;;10.82;7.40;;;;;;;;;;10051223;29;20053;-82
2023/04/16 07:39:05;;;;;;;11.68;6.97;;;;;;;;;;10065206;29;20499;-81
2023/04/16 07:44:10;;;;;;;17.83;9.85;;;;;;;;;;10057806;29;20052;-81
2023/04/16 07:49:13;;;;;;;13.55;8.05;;;;;;;;;;10029793;29;20128;-81
2023/04/16 07:54:17;;;;;;;18.08;10.90;;;;;;;;;;10031620;29;20475;-82
2023/04/16 07:59:21;;;;;;;20.65;12.25;;;;;;;;;;10041163;29;20060;-82
2023/04/16 08:04:26;;;;;;;14.82;9.07;;;;;;;;;;10030456;29;20502;-82
2023/04/16 08:09:29;;;;;;;15.60;9.93;;;;;;;;;;10048140;29;20058;-82
2023/04/16 08:14:35;;;;;;;12.63;7.75;;;;;;;;;;10042036;29;20056;-82
2023/04/16 08:19:38;;;;;;;13.07;8.77;;;;;;;;;;10025210;29;20049;-82
2023/04/16 08:24:42;;;;;;;10.18;6.80;;;;;;;;;;10025491;29;20077;-82
2023/04/16 08:29:47;;;;;;;11.80;7.43;;;;;;;;;;10044498;29;20132;-82
2023/04/16 08:34:50;;;;;;;15.50;8.98;;;;;;;;;;10042757;29;20110;-82
2023/04/16 08:39:54;;;;;;;11.60;7.85;;;;;;;;;;10049227;29;20394;-84
2023/04/16 08:45:08;;;;;;;11.05;6.63;;;;;;;;;;10049298;29;20052;-87
2023/04/16 08:50:14;;;;;;;30.70;15.57;;;;;;;;;;10047584;29;20786;-86
2023/04/16 08:55:22;;;;;;;30.70;17.27;;;;;;;;;;10032921;29;20045;-85
2023/04/16 09:00:28;;;;;;;20.02;12.30;;;;;;;;;;10032301;29;20064;-84
2023/04/16 09:05:33;;;;;;;19.55;11.80;;;;;;;;;;10031887;29;20185;-86
2023/04/16 09:10:36;;;;;;;21.30;13.55;;;;;;;;;;10046656;29;20049;-84
2023/04/16 09:15:42;;;;;;;19.85;12.48;;;;;;;;;;10045103;29;20487;-84
2023/04/16 09:20:46;;;;;;;15.70;9.30;;;;;;;;;;10042742;29;20053;-92
2023/04/16 09:25:49;;;;;;;16.58;11.15;;;;;;;;;;10030455;29;20602;-84
2023/04/16 09:31:09;;;;;;;12.60;8.00;;;;;;;;;;10031537;29;20806;-83
2023/04/16 09:36:12;;;;;;;14.10;8.82;;;;;;;;;;10029685;29;20072;-84
2023/04/16 09:41:16;;;;;;;15.75;9.80;;;;;;;;;;10045482;29;20074;-83
2023/04/16 09:46:21;;;;;;;13.13;8.43;;;;;;;;;;10036500;29;20079;-86
2023/04/16 09:51:25;;;;;;;13.10;7.75;;;;;;;;;;10049104;29;20131;-85
2023/04/16 09:56:29;;;;;;;12.48;6.85;;;;;;;;;;10048869;29;20088;-84
2023/04/16 10:01:36;;;;;;;9.77;6.45;;;;;;;;;;10028810;29;20049;-87
2023/04/16 10:06:40;;;;;;;11.63;7.28;;;;;;;;;;10042644;29;20057;-84
2023/04/16 10:11:44;;;;;;;10.30;6.25;;;;;;;;;;10042721;29;20061;-86
2023/04/16 10:16:50;;;;;;;14.98;9.00;;;;;;;;;;10042489;29;20460;-84
2023/04/16 10:21:54;;;;;;;9.33;6.63;;;;;;;;;;10038960;29;20046;-83
2023/04/16 10:26:59;;;;;;;15.27;8.88;;;;;;;;;;10027258;29;20057;-83
2023/04/16 10:32:05;;;;;;;11.35;7.18;;;;;;;;;;10044816;29;20077;-85
2023/04/16 10:37:09;;;;;;;19.88;11.63;;;;;;;;;;10028704;29;20136;-87
2023/04/16 10:42:13;;;;;;;17.98;11.02;;;;;;;;;;10044644;29;20105;-85
2023/04/16 10:47:18;;;;;;;12.60;7.15;;;;;;;;;;10026728;29;20113;-83
2023/04/16 10:52:23;;;;;;;9.93;6.60;;;;;;;;;;10042150;29;20052;-84
2023/04/16 10:57:29;;;;;;;9.40;6.03;;;;;;;;;;10044565;29;20507;-84
2023/04/16 11:02:34;;;;;;;18.45;9.75;;;;;;;;;;10034014;29;20148;-85
2023/04/16 11:07:47;;;;;;;11.18;6.75;;;;;;;;;;10041031;29;20045;-84
2023/04/16 11:12:52;;;;;;;10.13;6.40;;;;;;;;;;10057995;29;20052;-86
2023/04/16 11:17:58;;;;;;;10.18;6.60;;;;;;;;;;10041615;29;20057;-85
2023/04/16 11:23:02;;;;;;;12.40;7.97;;;;;;;;;;10045088;29;20110;-82
2023/04/16 11:28:05;;;;;;;12.52;7.75;;;;;;;;;;10052307;29;20061;-83
2023/04/16 11:33:11;;;;;;;13.88;7.78;;;;;;;;;;10046964;29;20045;-81
2023/04/16 11:38:15;;;;;;;;;;;;;;;;;;10043828;29;20054;-80
2023/04/16 11:43:18;;;;;;;20.67;12.85;;;;;;;;;;10058804;29;19931;-80
2023/04/16 11:48:23;;;;;;;18.42;11.80;;;;;;;;;;10035053;29;20038;-81
2023/04/16 11:53:27;;;;;;;24.53;15.97;;;;;;;;;;10040160;29;20048;-80
2023/04/16 11:58:31;;;;;;;22.38;12.50;;;;;;;;;;10038326;29;20045;-80
2023/04/16 12:03:48;;;;;;;21.80;12.73;;;;;;;;;;10068476;23;20525;-85
2023/04/16 12:09:05;;;;;;;18.13;11.32;;;;;;;;;;10043959;29;20052;-85
2023/04/16 12:14:12;;;;;;;15.50;9.55;;;;;;;;;;10043470;29;20057;-84
2023/04/16 12:19:17;;;;;;;17.48;10.85;;;;;;;;;;10041715;29;20050;-84
2023/04/16 12:24:22;;;;;;;21.70;12.77;;;;;;;;;;10060938;29;20045;-85
2023/04/16 12:29:32;;;;;;;24.88;14.57;;;;;;;;;;10050980;29;20052;-85
2023/04/16 12:34:53;;;;;;;23.55;14.27;;;;;;;;;;10028935;29;20057;-85
2023/04/16 12:39:56;;;;;;;21.27;12.30;;;;;;;;;;10053683;29;20053;-84
2023/04/16 12:44:59;;;;;;;16.65;10.73;;;;;;;;;;10031261;29;20041;-85
2023/04/16 12:50:05;;;;;;;19.48;11.23;;;;;;;;;;10045802;29;20051;-85
2023/04/16 12:55:09;;;;;;;20.50;11.93;;;;;;;;;;10045886;29;20041;-85
2023/04/16 13:00:15;;;;;;;17.42;11.45;;;;;;;;;;10045357;29;20057;-86
2023/04/16 13:05:19;;;;;;;15.57;10.40;;;;;;;;;;10044648;29;20053;-85
2023/04/16 13:10:23;;;;;;;13.05;8.75;;;;;;;;;;10028847;29;20671;-84
2023/04/16 13:15:26;;;;;;;13.35;8.60;;;;;;;;;;10045546;29;20500;-85
2023/04/16 13:20:31;;;;;;;14.38;8.77;;;;;;;;;;10029215;29;20046;-85
2023/04/16 13:25:34;;;;;;;20.25;12.85;;;;;;;;;;10027814;29;20136;-84
2023/04/16 13:30:38;;;;;;;11.82;8.18;;;;;;;;;;10031100;29;20048;-85
2023/04/16 13:35:42;;;;;;;13.90;9.60;;;;;;;;;;10027104;29;20041;-84
2023/04/16 13:40:46;;;;;;;9.60;6.68;;;;;;;;;;10027342;29;20053;-86
2023/04/16 13:45:49;;;;;;;10.43;7.72;;;;;;;;;;10042949;29;20050;-85
2023/04/16 13:50:54;;;;;;;9.32;6.82;;;;;;;;;;10029039;29;20067;-85
2023/04/16 13:55:58;;;;;;;14.43;8.52;;;;;;;;;;10045270;29;20049;-85
2023/04/16 14:01:01;;;;;;;10.95;7.22;;;;;;;;;;10029342;29;20073;-85
2023/04/16 14:06:06;;;;;;;14.57;9.13;;;;;;;;;;10033335;29;20047;-85
2023/04/16 14:11:09;;;;;;;16.80;11.38;;;;;;;;;;10060296;29;20302;-85
2023/04/16 14:16:13;;;;;;;15.32;10.90;;;;;;;;;;10041103;29;20121;-85
2023/04/16 14:21:18;;;;;;;18.08;11.43;;;;;;;;;;10038639;29;20071;-84
2023/04/16 14:26:21;;;;;;;10.48;7.93;;;;;;;;;;10039012;29;20052;-84
2023/04/16 14:31:24;;;;;;;10.52;7.72;;;;;;;;;;10038331;29;20063;-85
2023/04/16 14:36:29;;;;;;;7.50;5.40;;;;;;;;;;10035194;29;20045;-86
2023/04/16 14:41:33;;;;;;;6.88;4.68;;;;;;;;;;10052029;29;20124;-85
2023/04/16 14:46:37;;;;;;;4.72;3.78;;;;;;;;;;10054805;29;20045;-84
2023/04/16 14:51:42;;;;;;;7.20;4.38;;;;;;;;;;10038612;29;20076;-85
2023/04/16 14:56:46;;;;;;;3.33;3.00;;;;;;;;;;10049008;29;20044;-85
2023/04/16 15:01:49;;;;;;;4.05;3.58;;;;;;;;;;10039182;29;20045;-85
2023/04/16 15:06:57;;;;;;;4.28;3.10;;;;;;;;;;10051060;29;20054;-85
2023/04/16 15:12:01;;;;;;;4.07;3.33;;;;;;;;;;10033466;29;20076;-85
2023/04/16 15:17:04;;;;;;;5.35;3.58;;;;;;;;;;10036839;29;20067;-84
2023/04/16 15:22:09;;;;;;;3.83;3.05;;;;;;;;;;10033642;29;20472;-86
2023/04/16 15:27:13;;;;;;;4.95;3.45;;;;;;;;;;10028157;29;20053;-85
2023/04/16 15:32:16;;;;;;;3.92;3.03;;;;;;;;;;10030309;29;20057;-85
2023/04/16 15:37:21;;;;;;;4.10;3.47;;;;;;;;;;10047043;29;20049;-85
2023/04/16 15:42:25;;;;;;;4.18;3.78;;;;;;;;;;10053281;29;20533;-85
2023/04/16 15:47:28;;;;;;;6.53;5.07;;;;;;;;;;10041966;29;20049;-85
2023/04/16 15:52:33;;;;;;;9.73;6.22;;;;;;;;;;10058683;29;20069;-86
2023/04/16 15:57:36;;;;;;;8.88;6.18;;;;;;;;;;10055893;29;20068;-86
2023/04/16 16:02:40;;;;;;;5.65;4.30;;;;;;;;;;10045406;29;20057;-85
2023/04/16 16:07:45;;;;;;;7.55;4.50;;;;;;;;;;10050249;29;20050;-85
2023/04/16 16:12:49;;;;;;;6.43;4.50;;;;;;;;;;10058441;29;20057;-85
2023/04/16 16:17:52;;;;;;;6.13;4.75;;;;;;;;;;10028655;29;20041;-84
2023/04/16 16:23:08;;;;;;;6.00;4.82;;;;;;;;;;10048770;29;20519;-85
2023/04/16 16:28:15;;;;;;;5.45;4.05;;;;;;;;;;10057005;29;20049;-85
2023/04/16 16:33:27;;;;;;;5.72;3.47;;;;;;;;;;10045971;29;20072;-85
2023/04/16 16:38:57;;;;;;;4.82;3.45;;;;;;;;;;10038866;29;20526;-85
2023/04/16 16:44:01;;;;;;;3.97;3.00;;;;;;;;;;10030275;29;20049;-86
2023/04/16 16:49:05;;;;;;;3.60;3.10;;;;;;;;;;10042569;29;20055;-84
2023/04/16 16:54:10;;;;;;;4.75;3.72;;;;;;;;;;10052942;29;20054;-86
2023/04/16 16:59:13;;;;;;;4.57;3.55;;;;;;;;;;10026075;29;20056;-85
2023/04/16 17:04:17;;;;;;;5.00;3.55;;;;;;;;;;10052673;29;20422;-85
2023/04/16 17:09:23;;;;;;;4.32;3.65;;;;;;;;;;10033265;29;20053;-86
2023/04/16 17:14:27;;;;;;;5.63;4.18;;;;;;;;;;10051118;29;20048;-85
2023/04/16 17:19:30;;;;;;;5.78;3.72;;;;;;;;;;10031911;29;20053;-85
2023/04/16 17:24:35;;;;;;;6.18;4.13;;;;;;;;;;10044436;29;20041;-86
2023/04/16 17:29:38;;;;;;;4.25;3.30;;;;;;;;;;10050035;29;20374;-85
2023/04/16 17:34:41;;;;;;;5.07;3.65;;;;;;;;;;10052372;29;20412;-85
2023/04/16 17:39:46;;;;;;;6.35;3.88;;;;;;;;;;10056333;29;20433;-85
2023/04/16 17:44:49;;;;;;;4.70;3.90;;;;;;;;;;10050394;29;20058;-85
2023/04/16 17:49:54;;;;;;;6.60;4.53;;;;;;;;;;10049821;29;20049;-85
2023/04/16 17:55:00;;;;;;;6.20;3.78;;;;;;;;;;10054001;29;20511;-85
2023/04/16 18:00:08;;;;;;;5.13;3.72;;;;;;;;;;10121855;23;20122;-83
2023/04/16 18:05:14;;;;;;;4.88;3.72;;;;;;;;;;10080029;29;20051;-83
2023/04/16 18:10:19;;;;;;;5.35;3.45;;;;;;;;;;10048779;29;20495;-84
2023/04/16 18:15:23;;;;;;;5.38;3.63;;;;;;;;;;10027625;29;20045;-83
2023/04/16 18:20:26;;;;;;;4.72;3.45;;;;;;;;;;10021044;29;20534;-84
2023/04/16 18:25:31;;;;;;;5.75;4.05;;;;;;;;;;10034038;29;20125;-83
2023/04/16 18:30:37;;;;;;;4.40;3.30;;;;;;;;;;10034503;29;20061;-83
2023/04/16 18:35:42;;;;;;;4.90;3.30;;;;;;;;;;10019451;29;20074;-83
2023/04/16 18:40:48;;;;;;;4.78;3.72;;;;;;;;;;10019822;29;20056;-84
2023/04/16 18:45:51;;;;;;;5.22;3.65;;;;;;;;;;10032122;29;20056;-85
2023/04/16 18:50:56;;;;;;;4.80;3.60;;;;;;;;;;10025987;29;20054;-84
2023/04/16 18:56:01;;;;;;;4.13;2.88;;;;;;;;;;10042118;29;20094;-87
2023/04/16 19:01:09;;;;;;;3.92;3.10;;;;;;;;;;10024194;29;20534;-83
2023/04/16 19:06:12;;;;;;;3.58;2.95;;;;;;;;;;10017980;29;20137;-84
2023/04/16 19:11:17;;;;;;;5.25;3.22;;;;;;;;;;10045135;29;20057;-85
2023/04/16 19:16:20;;;;;;;3.63;3.10;;;;;;;;;;10035350;29;20133;-88
2023/04/16 19:21:24;;;;;;;4.07;3.20;;;;;;;;;;10042882;29;20152;-88
2023/04/16 19:26:29;;;;;;;4.05;3.15;;;;;;;;;;10045339;29;20674;-85
2023/04/16 19:31:33;;;;;;;6.05;3.20;;;;;;;;;;10053459;29;20132;-86
2023/04/16 19:36:36;;;;;;;4.90;3.55;;;;;;;;;;10041405;29;20058;-86
2023/04/16 19:41:41;;;;;;;4.50;3.47;;;;;;;;;;10057214;29;20085;-85
2023/04/16 19:46:45;;;;;;;4.25;3.28;;;;;;;;;;10031605;29;20136;-88
2023/04/16 19:51:48;;;;;;;3.33;3.03;;;;;;;;;;10051359;29;20050;-85
2023/04/16 19:56:53;;;;;;;4.70;3.17;;;;;;;;;;10032841;29;20045;-86
2023/04/16 20:01:56;;;;;;;6.18;3.90;;;;;;;;;;10051952;29;20055;-86
2023/04/16 20:07:00;;;;;;;4.88;3.40;;;;;;;;;;10032779;29;20041;-87
2023/04/16 20:12:05;;;;;;;5.20;3.80;;;;;;;;;;10030548;29;20051;-86
2023/04/16 20:17:08;;;;;;;4.68;3.63;;;;;;;;;;10032316;29;20069;-86
2023/04/16 20:22:13;;;;;;;5.13;3.38;;;;;;;;;;10030428;29;20053;-86
2023/04/16 20:27:18;;;;;;;5.28;3.70;;;;;;;;;;10030831;29;20080;-87
2023/04/16 20:32:21;;;;;;;5.47;3.55;;;;;;;;;;10031934;29;20230;-86
2023/04/16 20:37:26;;;;;;;3.97;3.08;;;;;;;;;;10038842;29;20057;-87
2023/04/16 20:42:32;;;;;;;4.37;3.47;;;;;;;;;;10042596;29;20191;-87
2023/04/16 20:47:35;;;;;;;4.13;2.97;;;;;;;;;;10047169;29;20045;-87
2023/04/16 20:52:41;;;;;;;4.25;3.28;;;;;;;;;;10032510;29;20056;-86
2023/04/16 20:57:46;;;;;;;4.88;3.38;;;;;;;;;;10036077;29;20128;-87
2023/04/16 21:02:49;;;;;;;4.28;3.47;;;;;;;;;;10026106;29;20132;-86
2023/04/16 21:07:52;;;;;;;5.05;3.83;;;;;;;;;;10049043;29;20072;-87
2023/04/16 21:12:59;;;;;;;7.00;4.10;;;;;;;;;;10047820;29;20275;-86
2023/04/16 21:18:02;;;;;;;7.28;3.90;;;;;;;;;;10045598;29;20117;-86
2023/04/16 21:23:06;;;;;;;4.25;3.50;;;;;;;;;;10049134;29;20133;-84
2023/04/16 21:28:11;;;;;;;5.10;3.58;;;;;;;;;;10020726;29;20145;-84
2023/04/16 21:33:15;;;;;;;5.82;4.07;;;;;;;;;;10022183;29;20080;-85
2023/04/16 21:38:18;;;;;;;5.35;4.47;;;;;;;;;;10037462;29;20680;-84
2023/04/16 21:43:24;;;;;;;6.40;4.70;;;;;;;;;;10020342;29;20573;-83
2023/04/16 21:48:27;;;;;;;7.35;4.82;;;;;;;;;;10037123;29;20136;-84
2023/04/16 21:53:31;;;;;;;5.22;3.50;;;;;;;;;;10035878;29;20053;-84
2023/04/16 21:58:35;;;;;;;5.13;4.00;;;;;;;;;;10020070;29;20052;-84
2023/04/16 22:03:39;;;;;;;6.40;4.25;;;;;;;;;;10036620;29;20144;-84
2023/04/16 22:08:43;;;;;;;6.53;4.10;;;;;;;;;;10022513;29;20049;-84
2023/04/16 22:13:48;;;;;;;5.43;3.90;;;;;;;;;;10024880;29;20132;-83
2023/04/16 22:18:53;;;;;;;5.60;3.92;;;;;;;;;;10036593;29;20509;-84
2023/04/16 22:23:57;;;;;;;4.90;3.73;;;;;;;;;;10038081;29;20052;-84
2023/04/16 22:29:01;;;;;;;5.68;3.88;;;;;;;;;;10025522;29;20537;-86
2023/04/16 22:34:05;;;;;;;4.57;3.67;;;;;;;;;;10024772;29;20392;-86
2023/04/16 22:39:08;;;;;;;5.93;3.80;;;;;;;;;;10041786;29;20050;-86
2023/04/16 22:44:13;;;;;;;5.63;3.83;;;;;;;;;;10026403;29;20140;-86
2023/04/16 22:49:17;;;;;;;6.05;4.18;;;;;;;;;;10028234;29;20041;-86
2023/04/16 22:54:20;;;;;;;6.20;4.22;;;;;;;;;;10046885;29;20113;-86
2023/04/16 22:59:25;;;;;;;4.80;3.47;;;;;;;;;;10035113;29;20144;-85
2023/04/16 23:04:29;;;;;;;6.68;4.32;;;;;;;;;;10027824;29;20060;-87
2023/04/16 23:09:33;;;;;;;5.07;3.95;;;;;;;;;;10048734;29;20219;-85
2023/04/16 23:14:37;;;;;;;4.82;3.88;;;;;;;;;;10033412;29;20053;-86
2023/04/16 23:19:41;;;;;;;5.22;3.85;;;;;;;;;;10033776;29;20145;-86
2023/04/16 23:24:44;;;;;;;4.60;3.42;;;;;;;;;;10032782;29;20092;-86
2023/04/16 23:29:49;;;;;;;5.38;3.63;;;;;;;;;;10040022;29;20046;-86
2023/04/16 23:34:52;;;;;;;6.63;4.00;;;;;;;;;;10033108;29;20076;-86
2023/04/16 23:39:56;;;;;;;3.97;3.15;;;;;;;;;;10033833;29;20076;-86
2023/04/16 23:45:00;;;;;;;4.65;3.60;;;;;;;;;;10048529;29;20128;-85
2023/04/16 23:50:05;;;;;;;4.55;3.35;;;;;;;;;;10033646;29;20073;-86
2023/04/16 23:55:09;;;;;;;4.30;3.40;;;;;;;;;;10033380;29;20049;-88
